Mount Cory, Ohio
Current Conditions -  °F | °C
As of 5:53 AM on Friday 24 Oct 2014 (Local Time) from KFDY Reporting Station
Haze Haze  
Wind Chill: 39°   Ceiling: Unl
Heat Index: 39°   Visibility: 6mi
Dew Point: 37°   Wind: 3mph
Humidity: 93%   Direction: 200°SSW
Pressure: 30.1"   Gusts: NA
Location:  40.94°N, 83.82°W
Report Text: KFDY 240953Z AUTO 20003KT 6SM BR CLR 04/03 A3010 RMK AO2 SLP192 T00390028
Loading
Personal Weather Stations






























Interactive Weather Map
Tropical Storm Tracking
New forecast layout! Learn more

10-Day Weather Forecast

Advertisements
Track Severe Weather on mobile